createdAt,value
2022-08-19T00:02:21.381Z,24.58
2022-08-19T00:05:24.294Z,24.66
2022-08-19T00:08:26.718Z,24.72
2022-08-19T00:11:29.444Z,24.72
2022-08-19T00:14:32.396Z,24.59
2022-08-19T00:17:35.198Z,24.62
2022-08-19T00:20:39.388Z,24.68
2022-08-19T00:23:43.170Z,24.56
2022-08-19T00:26:46.352Z,24.45
2022-08-19T00:29:52.562Z,24.37
2022-08-19T00:32:58.128Z,24.30
2022-08-19T00:36:01.291Z,24.36
2022-08-19T00:39:04.179Z,24.32
2022-08-19T00:42:07.303Z,24.41
2022-08-19T00:45:11.375Z,24.25
2022-08-19T00:48:15.049Z,24.35
2022-08-19T00:51:17.528Z,24.26
2022-08-19T00:54:20.935Z,24.37
2022-08-19T00:57:35.335Z,24.28
2022-08-19T01:00:38.201Z,24.27
2022-08-19T01:03:57.972Z,24.29
2022-08-19T01:07:03.259Z,24.25
2022-08-19T01:10:11.191Z,24.15
2022-08-19T01:13:16.821Z,24.07
2022-08-19T01:16:21.136Z,24.09
2022-08-19T01:19:28.564Z,24.00
2022-08-19T01:22:33.819Z,23.91
2022-08-19T01:25:42.690Z,23.89
2022-08-19T01:28:45.864Z,23.75
2022-08-19T01:31:50.125Z,23.72
2022-08-19T01:34:52.489Z,23.70
2022-08-19T01:37:58.791Z,23.64
2022-08-19T01:41:02.391Z,23.58
2022-08-19T01:44:18.447Z,23.51
2022-08-19T01:47:21.343Z,23.43
2022-08-19T01:50:24.256Z,23.46
2022-08-19T01:53:26.750Z,23.39
2022-08-19T01:56:36.836Z,23.35
2022-08-19T01:59:40.851Z,23.26
2022-08-19T02:02:51.314Z,23.22
2022-08-19T02:06:00.531Z,23.21
2022-08-19T02:09:05.478Z,23.11
2022-08-19T02:12:08.889Z,23.04
2022-08-19T02:15:11.679Z,23.03
2022-08-19T02:18:14.497Z,22.99
2022-08-19T02:21:17.861Z,22.97
2022-08-19T02:24:20.470Z,22.90
2022-08-19T02:27:23.442Z,22.90
2022-08-19T02:30:26.170Z,22.87
2022-08-19T02:33:28.508Z,22.81
2022-08-19T02:36:31.319Z,22.87
2022-08-19T02:39:33.645Z,22.83
2022-08-19T02:42:36.258Z,22.84
2022-08-19T02:45:41.462Z,22.84
2022-08-19T02:48:44.576Z,22.76
2022-08-19T02:51:47.137Z,22.79
2022-08-19T02:54:50.538Z,22.76
2022-08-19T02:57:52.884Z,22.79
2022-08-19T03:00:56.900Z,22.70
2022-08-19T03:04:00.979Z,22.62
2022-08-19T03:07:10.634Z,22.66
2022-08-19T03:10:13.755Z,22.61
2022-08-19T03:13:18.456Z,22.63
2022-08-19T03:16:25.158Z,22.68
2022-08-19T03:19:28.553Z,22.58
2022-08-19T03:22:31.023Z,22.54
2022-08-19T03:25:37.364Z,22.53
2022-08-19T03:28:51.247Z,22.52
2022-08-19T03:31:55.649Z,22.55
2022-08-19T03:34:57.949Z,22.59
2022-08-19T03:38:00.577Z,22.66
2022-08-19T03:41:03.925Z,22.54
2022-08-19T03:44:06.890Z,22.52
2022-08-19T03:47:17.971Z,22.56
2022-08-19T03:50:20.663Z,22.63
2022-08-19T03:53:22.952Z,22.64
2022-08-19T03:56:26.924Z,22.63
2022-08-19T03:59:31.574Z,22.61
2022-08-19T04:02:34.300Z,22.60
2022-08-19T04:05:36.920Z,22.61
2022-08-19T04:08:40.616Z,22.60
2022-08-19T04:11:47.880Z,22.65
2022-08-19T04:14:50.228Z,22.68
2022-08-19T04:17:52.735Z,22.72
2022-08-19T04:20:55.106Z,22.79
2022-08-19T04:23:57.914Z,22.81
2022-08-19T04:27:01.025Z,22.81
2022-08-19T04:30:06.968Z,22.82
2022-08-19T04:33:09.796Z,22.96
2022-08-19T04:36:21.512Z,23.00
2022-08-19T04:39:48.649Z,23.08
2022-08-19T04:42:51.264Z,23.23
2022-08-19T04:45:56.450Z,23.32
2022-08-19T04:49:13.303Z,23.38
2022-08-19T04:52:16.040Z,23.47
2022-08-19T04:55:18.972Z,23.53
2022-08-19T04:58:21.289Z,23.56
2022-08-19T05:01:25.618Z,23.65
2022-08-19T05:04:32.832Z,23.64
2022-08-19T05:07:36.081Z,23.70
2022-08-19T05:10:39.510Z,23.75
2022-08-19T05:13:43.500Z,23.85
2022-08-19T05:16:45.800Z,23.94
2022-08-19T05:20:06.914Z,24.10
2022-08-19T05:23:20.499Z,24.24
2022-08-19T05:26:26.992Z,24.44
2022-08-19T05:29:35.537Z,24.57
2022-08-19T05:32:39.870Z,24.74
2022-08-19T05:35:42.216Z,24.94
2022-08-19T05:38:44.697Z,25.13
2022-08-19T05:41:48.477Z,25.32
2022-08-19T05:44:51.338Z,25.47
2022-08-19T05:47:53.664Z,25.50
2022-08-19T05:50:56.212Z,25.67
2022-08-19T05:53:58.811Z,25.90
2022-08-19T05:57:01.594Z,26.13
2022-08-19T06:00:09.150Z,26.33
2022-08-19T06:03:14.197Z,26.55
2022-08-19T06:06:16.886Z,26.71
2022-08-19T06:09:19.861Z,26.85
2022-08-19T06:12:25.510Z,27.16
2022-08-19T06:15:29.014Z,26.95
2022-08-19T06:18:31.562Z,27.50
2022-08-19T06:21:34.611Z,27.65
2022-08-19T06:24:37.209Z,28.15
2022-08-19T06:27:58.589Z,28.63
2022-08-19T06:31:07.043Z,28.78
2022-08-19T06:34:09.465Z,29.17
2022-08-19T06:37:12.549Z,29.46
2022-08-19T06:40:15.079Z,30.09
2022-08-19T06:43:18.520Z,31.82
2022-08-19T06:46:21.021Z,34.71
2022-08-19T06:49:24.359Z,36.54
2022-08-19T06:52:26.721Z,37.37
2022-08-19T06:55:30.251Z,39.27
2022-08-19T06:58:36.048Z,39.89
2022-08-19T07:01:40.610Z,39.37
2022-08-19T07:04:42.907Z,40.35
2022-08-19T07:07:45.580Z,41.29
2022-08-19T07:10:50.140Z,41.45
2022-08-19T07:13:54.201Z,41.51
2022-08-19T07:16:57.439Z,42.73
2022-08-19T07:20:05.510Z,41.29
2022-08-19T07:23:15.754Z,42.54
2022-08-19T07:26:20.835Z,41.77
2022-08-19T07:29:31.227Z,40.92
2022-08-19T07:32:33.899Z,40.85
2022-08-19T07:35:36.244Z,41.44
2022-08-19T07:38:40.457Z,43.12
2022-08-19T07:41:43.126Z,43.87
2022-08-19T07:44:50.693Z,44.31
2022-08-19T07:47:53.517Z,44.16
2022-08-19T07:50:57.985Z,44.24
2022-08-19T07:54:00.983Z,44.32
2022-08-19T07:57:04.227Z,43.69
2022-08-19T08:00:07.369Z,40.80
2022-08-19T08:03:15.212Z,39.26
2022-08-19T08:06:36.563Z,37.56
2022-08-19T08:09:49.727Z,36.68
2022-08-19T08:13:08.907Z,35.88
2022-08-19T08:16:13.932Z,36.13
2022-08-19T08:19:25.377Z,36.28
2022-08-19T08:22:46.944Z,36.26
2022-08-19T08:25:50.188Z,35.98
2022-08-19T08:28:53.399Z,35.55
2022-08-19T08:31:59.635Z,37.23
2022-08-19T08:35:02.635Z,39.94
2022-08-19T08:38:05.950Z,41.91
2022-08-19T08:41:20.546Z,42.61
2022-08-19T08:44:41.902Z,43.92
2022-08-19T08:47:48.503Z,42.61
2022-08-19T08:50:53.599Z,40.11
2022-08-19T08:53:57.085Z,38.92
2022-08-19T08:56:59.727Z,37.59
2022-08-19T09:00:06.495Z,36.51
2022-08-19T09:03:20.216Z,35.55
2022-08-19T09:06:28.382Z,35.85
2022-08-19T09:09:35.832Z,36.12
2022-08-19T09:12:39.279Z,35.64
2022-08-19T09:15:52.177Z,35.81
2022-08-19T09:18:58.609Z,35.81
2022-08-19T09:22:01.645Z,35.68
2022-08-19T09:25:07.420Z,34.76
2022-08-19T09:28:15.052Z,35.41
2022-08-19T09:31:19.920Z,35.49
2022-08-19T09:34:22.681Z,35.50
2022-08-19T09:37:25.400Z,35.17
2022-08-19T09:40:30.154Z,35.72
2022-08-19T09:43:44.159Z,35.76
2022-08-19T09:46:50.369Z,35.96
2022-08-19T09:49:52.691Z,36.21
2022-08-19T09:52:57.297Z,36.42
2022-08-19T09:56:00.022Z,36.28
2022-08-19T09:59:04.332Z,35.93
2022-08-19T10:02:10.674Z,36.44
2022-08-19T10:05:32.416Z,36.79
2022-08-19T10:08:37.889Z,36.46
2022-08-19T10:11:45.294Z,36.86
2022-08-19T10:14:55.407Z,36.75
2022-08-19T10:17:58.873Z,37.03
2022-08-19T10:21:25.587Z,36.78
2022-08-19T10:24:29.059Z,36.93
2022-08-19T10:27:32.483Z,37.47
2022-08-19T10:30:37.040Z,37.78
2022-08-19T10:33:53.598Z,37.76
2022-08-19T10:37:00.509Z,37.54
2022-08-19T10:40:05.391Z,37.36
2022-08-19T10:43:08.268Z,37.58
2022-08-19T10:46:14.199Z,37.49
2022-08-19T10:49:20.258Z,37.22
2022-08-19T10:52:34.785Z,37.92
2022-08-19T10:56:00.032Z,37.74
2022-08-19T10:59:04.242Z,37.89
2022-08-19T11:02:10.837Z,37.59
2022-08-19T11:05:14.425Z,37.89
2022-08-19T11:08:23.655Z,38.12
2022-08-19T11:11:27.111Z,38.32
2022-08-19T11:14:32.149Z,38.37
2022-08-19T11:17:36.968Z,37.95
2022-08-19T11:20:40.244Z,37.59
2022-08-19T11:23:42.680Z,37.95
2022-08-19T11:26:46.198Z,38.28
2022-08-19T11:29:48.559Z,37.95
2022-08-19T11:32:51.197Z,38.10
2022-08-19T11:35:54.374Z,38.20
2022-08-19T11:38:57.054Z,37.99
2022-08-19T11:42:00.086Z,37.94
2022-08-19T11:45:04.921Z,37.72
2022-08-19T11:48:07.597Z,38.22
2022-08-19T11:51:15.435Z,38.54
2022-08-19T11:54:18.421Z,38.58
2022-08-19T11:57:21.056Z,38.34
2022-08-19T12:00:23.546Z,38.41
2022-08-19T12:03:26.661Z,38.57
2022-08-19T12:06:30.536Z,38.69
2022-08-19T12:09:35.320Z,38.84
2022-08-19T12:12:43.650Z,39.07
2022-08-19T12:15:47.492Z,39.55
2022-08-19T12:18:51.893Z,39.77
2022-08-19T12:22:01.381Z,39.95
2022-08-19T12:25:04.299Z,39.60
2022-08-19T12:28:07.082Z,39.23
2022-08-19T12:31:09.619Z,39.56
2022-08-19T12:34:12.842Z,39.20
2022-08-19T12:37:15.526Z,39.01
2022-08-19T12:40:20.137Z,38.90
2022-08-19T12:43:22.590Z,39.20
2022-08-19T12:46:26.180Z,38.76
2022-08-19T12:49:54.568Z,38.74
2022-08-19T12:52:52.018Z,38.71
2022-08-19T12:56:01.081Z,38.58
2022-08-19T12:59:05.215Z,38.13
2022-08-19T13:02:08.203Z,38.53
2022-08-19T13:05:12.532Z,38.55
2022-08-19T13:08:15.244Z,38.21
2022-08-19T13:11:19.933Z,38.48
2022-08-19T13:14:22.251Z,38.20
2022-08-19T13:17:24.942Z,37.83
2022-08-19T13:20:27.873Z,37.65
2022-08-19T13:23:31.217Z,37.37
2022-08-19T13:26:33.534Z,36.97
2022-08-19T13:29:55.274Z,37.34
2022-08-19T13:33:12.675Z,37.51
2022-08-19T13:36:15.233Z,37.62
2022-08-19T13:39:17.584Z,38.06
2022-08-19T13:42:20.251Z,37.88
2022-08-19T13:45:23.666Z,38.24
2022-08-19T13:48:27.933Z,38.13
2022-08-19T13:51:30.459Z,37.74
2022-08-19T13:54:33.474Z,37.78
2022-08-19T13:57:37.030Z,37.80
2022-08-19T14:00:41.978Z,38.05
2022-08-19T14:03:45.595Z,38.04
2022-08-19T14:06:49.799Z,38.10
2022-08-19T14:09:52.472Z,37.81
2022-08-19T14:12:56.674Z,37.89
2022-08-19T14:15:59.344Z,37.87
2022-08-19T14:19:02.330Z,37.38
2022-08-19T14:22:05.525Z,36.13
2022-08-19T14:25:14.696Z,35.11
2022-08-19T14:28:17.944Z,34.41
2022-08-19T14:31:20.966Z,33.74
2022-08-19T14:34:23.562Z,33.53
2022-08-19T14:37:26.254Z,33.33
2022-08-19T14:40:32.978Z,33.06
2022-08-19T14:43:35.470Z,32.80
2022-08-19T14:46:37.995Z,32.64
2022-08-19T14:49:42.342Z,32.57
2022-08-19T14:52:47.417Z,31.88
2022-08-19T14:55:49.691Z,31.69
2022-08-19T14:59:00.100Z,31.55
2022-08-19T15:02:33.596Z,31.11
2022-08-19T15:05:25.243Z,30.94
2022-08-19T15:08:28.602Z,30.90
2022-08-19T15:11:33.293Z,30.97
2022-08-19T15:14:38.174Z,31.07
2022-08-19T15:17:45.864Z,31.17
2022-08-19T15:20:49.395Z,31.22
2022-08-19T15:23:53.236Z,31.23
2022-08-19T15:26:56.793Z,31.24
2022-08-19T15:30:01.287Z,31.30
2022-08-19T15:33:04.777Z,31.08
2022-08-19T15:36:07.766Z,31.02
2022-08-19T15:39:11.011Z,30.92
2022-08-19T15:42:13.867Z,30.72
2022-08-19T15:45:32.921Z,30.59
2022-08-19T15:48:37.019Z,30.39
2022-08-19T15:51:40.020Z,30.30
2022-08-19T15:54:42.749Z,30.28
2022-08-19T15:58:03.955Z,30.20
2022-08-19T16:01:27.371Z,30.18
2022-08-19T16:04:48.704Z,30.17
2022-08-19T16:07:51.192Z,30.24
2022-08-19T16:10:53.904Z,30.21
2022-08-19T16:13:57.824Z,30.22
2022-08-19T16:17:01.933Z,30.15
2022-08-19T16:20:05.546Z,30.11
2022-08-19T16:23:08.217Z,30.05
2022-08-19T16:26:10.539Z,30.02
2022-08-19T16:29:13.968Z,30.02
2022-08-19T16:32:16.380Z,29.97
2022-08-19T16:35:19.147Z,29.93
2022-08-19T16:38:22.487Z,29.78
2022-08-19T16:41:25.256Z,29.73
2022-08-19T16:44:29.789Z,29.64
2022-08-19T16:47:32.932Z,29.54
2022-08-19T16:50:48.768Z,29.43
2022-08-19T16:53:53.202Z,29.38
2022-08-19T16:56:56.144Z,29.35
2022-08-19T16:59:59.295Z,29.27
2022-08-19T17:03:05.847Z,29.26
2022-08-19T17:06:20.805Z,29.16
2022-08-19T17:09:26.008Z,29.13
2022-08-19T17:12:31.919Z,29.07
2022-08-19T17:15:34.991Z,28.98
2022-08-19T17:18:37.624Z,29.00
2022-08-19T17:21:40.758Z,28.91
2022-08-19T17:24:43.365Z,28.95
2022-08-19T17:27:45.727Z,28.80
2022-08-19T17:30:48.525Z,28.77
2022-08-19T17:33:51.318Z,28.71
2022-08-19T17:36:57.162Z,28.68
2022-08-19T17:39:59.677Z,28.53
2022-08-19T17:43:02.739Z,28.41
2022-08-19T17:46:05.276Z,28.25
2022-08-19T17:49:08.088Z,28.12
2022-08-19T17:52:11.093Z,28.10
2022-08-19T17:55:13.700Z,28.12
2022-08-19T17:58:16.694Z,27.97
2022-08-19T18:01:22.319Z,27.90
2022-08-19T18:04:29.807Z,27.78
2022-08-19T18:07:32.391Z,27.72
2022-08-19T18:10:35.359Z,27.74
2022-08-19T18:13:37.924Z,27.71
2022-08-19T18:16:40.662Z,27.77
2022-08-19T18:19:44.023Z,27.70
2022-08-19T18:22:47.708Z,27.68
2022-08-19T18:25:50.257Z,27.63
2022-08-19T18:28:54.173Z,27.67
2022-08-19T18:31:57.841Z,27.78
2022-08-19T18:35:02.797Z,27.79
2022-08-19T18:38:25.424Z,27.65
2022-08-19T18:41:46.820Z,27.64
2022-08-19T18:45:07.753Z,27.49
2022-08-19T18:48:29.154Z,27.53
2022-08-19T18:51:32.580Z,27.50
2022-08-19T18:54:35.695Z,27.11
2022-08-19T18:57:37.978Z,26.80
2022-08-19T19:00:41.905Z,26.54
2022-08-19T19:03:46.758Z,26.25
2022-08-19T19:06:49.881Z,25.61
2022-08-19T19:09:52.534Z,25.19
2022-08-19T19:12:55.322Z,24.93
2022-08-19T19:15:57.686Z,24.88
2022-08-19T19:19:00.443Z,24.86
2022-08-19T19:22:04.082Z,24.82
2022-08-19T19:25:08.231Z,24.77
2022-08-19T19:28:10.566Z,24.84
2022-08-19T19:31:29.186Z,24.91
2022-08-19T19:34:31.586Z,24.92
2022-08-19T19:37:34.337Z,24.99
2022-08-19T19:40:36.738Z,25.07
2022-08-19T19:43:41.009Z,25.10
2022-08-19T19:46:43.636Z,25.13
2022-08-19T19:50:12.766Z,24.81
2022-08-19T19:53:10.090Z,24.19
2022-08-19T19:56:13.046Z,23.72
2022-08-19T19:59:16.336Z,23.07
2022-08-19T20:02:19.108Z,22.79
2022-08-19T20:05:21.962Z,22.77
2022-08-19T20:08:42.704Z,22.77
2022-08-19T20:11:50.234Z,22.70
2022-08-19T20:14:56.222Z,22.63
2022-08-19T20:17:59.890Z,22.59
2022-08-19T20:21:02.231Z,22.68
2022-08-19T20:24:09.616Z,22.70
2022-08-19T20:27:12.664Z,22.83
2022-08-19T20:30:19.601Z,22.84
2022-08-19T20:33:22.201Z,22.62
2022-08-19T20:36:24.917Z,22.33
2022-08-19T20:39:27.252Z,21.88
2022-08-19T20:42:29.842Z,21.50
2022-08-19T20:45:36.336Z,21.15
2022-08-19T20:48:39.750Z,20.91
2022-08-19T20:51:42.244Z,20.80
2022-08-19T20:54:44.844Z,20.69
2022-08-19T20:57:47.313Z,20.55
2022-08-19T21:00:50.471Z,20.44
2022-08-19T21:03:52.882Z,20.46
2022-08-19T21:06:55.428Z,20.42
2022-08-19T21:09:57.924Z,20.40
2022-08-19T21:13:00.587Z,20.44
2022-08-19T21:16:03.080Z,20.47
2022-08-19T21:19:12.218Z,20.45
2022-08-19T21:22:14.569Z,20.41
2022-08-19T21:25:18.579Z,20.44
2022-08-19T21:28:34.283Z,20.51
2022-08-19T21:31:39.267Z,20.47
2022-08-19T21:34:43.993Z,20.44
2022-08-19T21:37:49.892Z,20.43
2022-08-19T21:40:52.589Z,20.42
2022-08-19T21:43:55.192Z,20.40
2022-08-19T21:46:57.603Z,20.44
2022-08-19T21:50:00.212Z,20.44
2022-08-19T21:53:02.539Z,20.43
2022-08-19T21:56:06.492Z,20.43
2022-08-19T21:59:08.827Z,20.43
2022-08-19T22:02:21.001Z,20.42
2022-08-19T22:05:24.818Z,20.49
2022-08-19T22:08:27.342Z,20.44
2022-08-19T22:11:30.170Z,20.43
2022-08-19T22:14:33.714Z,20.43
2022-08-19T22:17:36.451Z,20.41
2022-08-19T22:20:38.780Z,20.41
2022-08-19T22:23:41.890Z,20.52
2022-08-19T22:26:44.183Z,20.45
2022-08-19T22:29:46.988Z,20.51
2022-08-19T22:33:00.803Z,20.54
2022-08-19T22:36:04.528Z,20.60
2022-08-19T22:39:06.865Z,20.62
2022-08-19T22:42:11.435Z,20.56
2022-08-19T22:45:15.527Z,20.67
2022-08-19T22:48:19.430Z,20.60
2022-08-19T22:51:40.365Z,20.58
2022-08-19T22:54:44.025Z,20.59
2022-08-19T22:57:46.353Z,20.51
2022-08-19T23:00:49.099Z,20.45
2022-08-19T23:03:51.392Z,20.41
2022-08-19T23:06:53.922Z,20.41
2022-08-19T23:09:56.651Z,20.45
2022-08-19T23:12:59.815Z,20.49
2022-08-19T23:16:03.126Z,20.47
2022-08-19T23:19:05.724Z,20.47
2022-08-19T23:22:08.368Z,20.43
2022-08-19T23:25:13.556Z,20.42
2022-08-19T23:28:34.713Z,20.40
2022-08-19T23:31:37.611Z,20.39
2022-08-19T23:34:40.251Z,20.38
2022-08-19T23:37:42.806Z,20.37
2022-08-19T23:40:45.443Z,20.37
2022-08-19T23:43:48.190Z,20.38
2022-08-19T23:46:54.899Z,20.38
2022-08-19T23:49:58.219Z,20.42
2022-08-19T23:53:01.634Z,20.43
2022-08-19T23:56:04.745Z,20.48
2022-08-19T23:59:07.100Z,20.45
